Open Full Screen Window  High Contrast Mode
Wind Gusting 00 knots
04
July 20, 2018 4:56 AM EDT
Weather Information
Wind Direction
  110 °
Wind Speed
  04 kt (5 mph)
Wind Gust
  00 kt (0 mph)
Altimeter
29.99 in
Visibility
10 SM
Temperature
18° C
64° F
Dewpoint
14° C
57° F
Humidity
78%
1hr Rain Fall
00.00 in.
24hr Rain Fall
00.00 in.
Sky Condition
Scattered @ 6,500 ft
VFR

METAR KPOV 200856Z AUTO 11004KT 10SM SCT065 18/14 A2999 RMK AO2 T01810142 PWINO

FAA Disclaimer: The data displayed is for advisory purposes only and is not to be used for flight planning or operations.